Time;durP1;ratioP1;P1;durP2;ratioP2;P2;SDS_P1;SDS_P2;PMS_P1;PMS_P2;Temp;Humidity;BMP_temperature;BMP_pressure;BME280_temperature;BME280_humidity;BME280_pressure;Samples;Min_cycle;Max_cycle;Signal;HPM_P1;HPM_P2
2022/09/21 00:01:16;;;;;;;14.57;13.50;;;12.90;31.20;;;;;;5015755;28;20840;-47
2022/09/21 00:03:43;;;;;;;13.83;13.07;;;12.90;31.30;;;;;;5015086;28;20407;-52
2022/09/21 00:06:14;;;;;;;13.00;12.30;;;12.90;31.20;;;;;;5015074;28;20427;-46
2022/09/21 00:08:40;;;;;;;13.27;12.67;;;12.90;31.00;;;;;;5015581;28;20482;-48
2022/09/21 00:11:07;;;;;;;12.77;12.17;;;12.90;31.00;;;;;;5015328;28;20418;-51
2022/09/21 00:13:36;;;;;;;13.27;12.73;;;12.80;31.20;;;;;;5014779;28;20207;-52
2022/09/21 00:16:05;;;;;;;13.13;12.53;;;12.80;31.30;;;;;;5013976;28;20516;-45
2022/09/21 00:18:32;;;;;;;13.97;13.27;;;12.80;31.50;;;;;;5014170;28;20506;-43
2022/09/21 00:20:57;;;;;;;13.50;12.80;;;12.80;31.60;;;;;;5013850;28;20522;-46
2022/09/21 00:23:23;;;;;;;13.10;12.50;;;12.80;31.40;;;;;;5014211;28;20466;-43
2022/09/21 00:25:49;;;;;;;12.80;12.00;;;12.80;31.70;;;;;;5014204;28;20451;-47
2022/09/21 00:28:15;;;;;;;12.90;12.30;;;12.70;32.40;;;;;;5014738;28;20310;-42
2022/09/21 00:30:40;;;;;;;13.47;12.77;;;12.80;32.20;;;;;;5013304;28;20331;-43
2022/09/21 00:33:06;;;;;;;13.03;12.43;;;12.70;32.10;;;;;;5013525;28;20187;-44
2022/09/21 00:35:32;;;;;;;13.03;12.43;;;12.80;32.00;;;;;;5013612;28;20216;-48
2022/09/21 00:38:02;;;;;;;13.57;12.97;;;12.70;31.90;;;;;;5014200;28;20176;-43
2022/09/21 00:40:28;;;;;;;13.30;12.63;;;12.70;32.10;;;;;;5013552;28;20423;-44
2022/09/21 00:43:13;;;;;;;13.50;12.83;;;12.70;32.00;;;;;;5014186;28;20419;-44
2022/09/21 00:45:39;;;;;;;13.27;12.57;;;12.60;32.00;;;;;;5014391;28;20419;-47
2022/09/21 00:48:05;;;;;;;14.77;13.87;;;12.60;32.20;;;;;;5014364;28;20418;-47
2022/09/21 00:50:32;;;;;;;14.40;13.70;;;12.40;32.70;;;;;;5013610;28;20450;-49
2022/09/21 00:52:58;;;;;;;14.03;13.50;;;11.90;34.10;;;;;;5013798;28;20209;-48
2022/09/21 00:55:40;;;;;;;13.93;13.20;;;11.50;35.50;;;;;;5013649;28;20838;-50
2022/09/21 00:58:11;;;;;;;13.80;13.20;;;11.20;36.90;;;;;;5013910;28;20411;-48
2022/09/21 01:00:39;;;;;;;15.03;14.20;;;11.20;37.30;;;;;;5013515;28;20776;-49
2022/09/21 01:03:05;;;;;;;14.63;13.83;;;11.20;38.30;;;;;;5013324;28;20470;-46
2022/09/21 01:05:31;;;;;;;15.97;15.27;;;11.40;37.80;;;;;;5013376;28;20419;-49
2022/09/21 01:08:01;;;;;;;14.70;14.00;;;11.60;36.80;;;;;;5014075;28;20433;-46
2022/09/21 01:10:35;;;;;;;15.40;14.70;;;11.80;36.20;;;;;;5013057;28;20180;-51
2022/09/21 01:16:37;;;;;;;15.13;14.50;;;12.00;34.80;;;;;;5030919;28;20485;-42
2022/09/21 01:19:21;;;;;;;15.30;14.60;;;12.10;34.50;;;;;;5013439;28;20428;-43
2022/09/21 01:22:06;;;;;;;16.60;15.60;;;12.20;34.10;;;;;;5012969;28;20451;-42
2022/09/21 01:24:47;;;;;;;15.50;14.57;;;12.20;33.40;;;;;;5030418;28;20431;-50
2022/09/21 01:27:32;;;;;;;13.90;13.30;;;12.20;33.40;;;;;;5012864;28;20786;-51
2022/09/21 01:30:20;;;;;;;15.60;14.80;;;12.30;33.50;;;;;;5013269;28;20462;-50
2022/09/21 01:33:05;;;;;;;15.40;14.50;;;12.30;33.60;;;;;;5013004;28;20416;-50
2022/09/21 01:35:36;;;;;;;14.03;13.23;;;12.30;33.50;;;;;;5013040;28;20558;-51
2022/09/21 01:38:18;;;;;;;14.23;13.20;;;12.30;33.00;;;;;;5013030;28;20510;-46
2022/09/21 01:40:49;;;;;;;13.70;13.00;;;12.30;33.30;;;;;;5013302;28;20419;-49
2022/09/21 01:43:24;;;;;;;12.63;12.10;;;12.40;32.90;;;;;;5013044;28;20465;-50
2022/09/21 01:45:53;;;;;;;13.10;12.50;;;12.40;33.10;;;;;;5012677;28;20862;-47
2022/09/21 01:48:21;;;;;;;14.80;13.90;;;12.30;32.70;;;;;;5013097;28;20424;-46
2022/09/21 01:50:52;;;;;;;12.83;12.23;;;12.30;33.10;;;;;;5013220;28;20420;-47
2022/09/21 01:54:01;;;;;;;14.43;13.20;;;12.30;32.90;;;;;;5012031;28;20907;-47
2022/09/21 01:56:36;;;;;;;13.40;12.80;;;12.30;33.20;;;;;;5016946;28;20536;-48
2022/09/21 01:59:33;;;;;;;14.97;14.07;;;12.30;33.20;;;;;;5012598;28;20406;-51
2022/09/21 02:02:08;;;;;;;14.47;13.80;;;12.30;33.30;;;;;;5012532;28;20419;-51
2022/09/21 02:04:34;;;;;;;14.00;13.30;;;12.30;33.10;;;;;;5012816;28;20407;-52
2022/09/21 02:07:00;;;;;;;14.97;13.77;;;12.30;32.60;;;;;;5012236;28;20411;-47
2022/09/21 02:09:26;;;;;;;13.93;13.13;;;12.30;32.60;;;;;;5012323;28;20633;-49
2022/09/21 02:11:52;;;;;;;13.90;13.10;;;12.30;32.60;;;;;;5012291;28;20418;-46
2022/09/21 02:14:24;;;;;;;13.97;13.07;;;12.30;32.50;;;;;;5012347;28;20423;-48
2022/09/21 02:16:50;;;;;;;14.30;13.10;;;12.30;32.40;;;;;;5012306;28;20236;-50
2022/09/21 02:19:43;;;;;;;13.40;12.80;;;12.10;32.00;;;;;;5012032;28;20415;-50
2022/09/21 02:22:28;;;;;;;13.63;12.73;;;12.00;33.20;;;;;;5012105;28;20462;-48
2022/09/21 02:25:08;;;;;;;13.63;12.97;;;12.00;33.30;;;;;;5012940;28;20451;-42
2022/09/21 02:27:49;;;;;;;14.70;14.00;;;12.10;33.30;;;;;;5011728;28;20470;-50
2022/09/21 02:30:19;;;;;;;14.60;13.67;;;12.20;32.90;;;;;;5012149;28;20430;-42
2022/09/21 02:32:45;;;;;;;12.97;12.27;;;12.10;32.20;;;;;;5029349;28;20423;-47
2022/09/21 02:35:25;;;;;;;13.37;12.77;;;12.00;33.30;;;;;;5011845;28;20423;-46
2022/09/21 02:38:28;;;;;;;15.03;14.13;;;12.00;33.20;;;;;;5011712;28;20501;-46
2022/09/21 02:41:18;;;;;;;15.30;14.57;;;12.00;33.20;;;;;;4925932;28;20502;-42
2022/09/21 02:44:06;;;;;;;13.80;13.20;;;12.10;33.20;;;;;;5011792;28;20419;-46
2022/09/21 02:46:43;;;;;;;14.93;14.23;;;12.10;32.70;;;;;;5011102;28;20419;-43
2022/09/21 02:49:18;;;;;;;13.80;13.13;;;12.10;32.40;;;;;;5029261;28;20418;-47
2022/09/21 02:51:48;;;;;;;14.50;13.70;;;12.10;32.20;;;;;;5011527;28;20921;-44
2022/09/21 02:54:17;;;;;;;13.90;13.30;;;12.10;32.30;;;;;;5011580;28;20579;-42
2022/09/21 02:56:45;;;;;;;13.63;13.13;;;12.10;32.20;;;;;;5011181;28;20551;-43
2022/09/21 02:59:11;;;;;;;14.10;13.40;;;12.10;32.30;;;;;;5011118;28;20412;-46
2022/09/21 03:01:38;;;;;;;13.50;12.90;;;12.10;32.00;;;;;;5010908;28;20777;-42
2022/09/21 03:04:04;;;;;;;14.43;13.73;;;12.00;32.50;;;;;;5010947;28;20246;-45
2022/09/21 03:06:30;;;;;;;14.53;13.60;;;12.00;32.80;;;;;;5011494;28;20655;-45
2022/09/21 03:08:57;;;;;;;14.90;14.20;;;12.00;32.80;;;;;;5010689;28;20253;-43
2022/09/21 03:11:24;;;;;;;14.17;13.67;;;11.80;32.30;;;;;;5010631;28;20184;-43
2022/09/21 03:13:49;;;;;;;15.50;14.90;;;11.60;34.30;;;;;;5010866;28;20790;-43
2022/09/21 03:16:15;;;;;;;15.70;15.00;;;11.50;34.50;;;;;;5011288;28;20467;-48
2022/09/21 03:18:43;;;;;;;15.97;15.17;;;11.40;33.90;;;;;;5011794;28;20629;-49
2022/09/21 03:21:09;;;;;;;16.63;15.80;;;11.30;35.00;;;;;;5011286;28;20176;-47
2022/09/21 03:23:35;;;;;;;17.80;16.60;;;11.20;35.50;;;;;;5011785;28;20522;-49
2022/09/21 03:26:01;;;;;;;16.03;15.30;;;11.30;35.00;;;;;;5028634;28;20559;-53
2022/09/21 03:28:27;;;;;;;16.57;15.67;;;11.50;34.70;;;;;;5011412;28;20509;-49
2022/09/21 03:30:53;;;;;;;15.97;14.97;;;11.60;34.30;;;;;;5011420;28;20916;-51
2022/09/21 03:33:19;;;;;;;17.67;16.73;;;11.70;33.60;;;;;;5011194;28;20422;-47
2022/09/21 03:35:47;;;;;;;16.70;15.93;;;11.70;33.00;;;;;;5010794;28;20212;-48
2022/09/21 03:38:15;;;;;;;16.03;15.13;;;11.80;33.10;;;;;;5011746;28;20415;-48
2022/09/21 03:40:45;;;;;;;15.43;14.53;;;11.80;33.10;;;;;;5011293;28;20489;-46
2022/09/21 03:43:10;;;;;;;15.40;14.50;;;11.80;33.10;;;;;;5011450;28;20783;-49
2022/09/21 03:45:36;;;;;;;15.13;14.47;;;11.80;33.10;;;;;;5011057;28;20429;-49
2022/09/21 03:48:03;;;;;;;14.00;13.50;;;11.80;32.80;;;;;;5011605;28;20551;-47
2022/09/21 03:50:29;;;;;;;14.70;13.97;;;11.90;32.70;;;;;;5011513;28;20434;-47
2022/09/21 03:52:55;;;;;;;15.90;15.10;;;11.90;32.50;;;;;;5011496;28;20419;-50
2022/09/21 03:55:21;;;;;;;14.60;13.80;;;11.90;33.10;;;;;;5010950;28;20279;-51
2022/09/21 03:57:47;;;;;;;14.23;13.53;;;11.80;32.20;;;;;;5010840;28;20885;-45
2022/09/21 04:00:14;;;;;;;14.47;13.80;;;11.80;32.30;;;;;;5010284;28;20184;-43
2022/09/21 04:02:39;;;;;;;14.60;13.77;;;11.80;32.80;;;;;;5010370;28;20415;-47
2022/09/21 04:05:06;;;;;;;15.10;13.90;;;11.70;32.90;;;;;;5010388;28;20446;-43
2022/09/21 04:07:33;;;;;;;15.50;14.90;;;11.80;33.00;;;;;;5010444;28;20185;-43
2022/09/21 04:09:59;;;;;;;16.90;15.83;;;11.80;32.60;;;;;;5010346;28;21045;-46
2022/09/21 04:12:25;;;;;;;15.90;14.83;;;11.70;32.90;;;;;;5010547;28;20420;-53
2022/09/21 04:14:51;;;;;;;14.40;13.50;;;11.70;33.00;;;;;;5010896;28;20423;-48
2022/09/21 04:17:17;;;;;;;14.83;14.03;;;11.80;32.90;;;;;;5010654;28;20616;-47
2022/09/21 04:19:46;;;;;;;15.70;14.80;;;11.70;32.90;;;;;;5010886;28;20173;-48
2022/09/21 04:22:12;;;;;;;15.00;14.30;;;11.80;33.10;;;;;;5010434;28;20173;-54
2022/09/21 04:24:39;;;;;;;16.53;15.67;;;11.70;33.70;;;;;;5009826;28;20525;-48
2022/09/21 04:27:09;;;;;;;16.37;15.37;;;11.70;33.00;;;;;;5011373;28;20187;-47
2022/09/21 04:29:35;;;;;;;16.90;16.10;;;11.70;33.00;;;;;;5010307;28;20423;-46
2022/09/21 04:32:01;;;;;;;19.20;18.10;;;11.40;34.30;;;;;;5010113;28;20506;-49
2022/09/21 04:34:27;;;;;;;18.73;17.47;;;11.30;34.30;;;;;;5009643;28;20420;-44
2022/09/21 04:36:53;;;;;;;18.70;17.70;;;11.40;34.10;;;;;;5027997;28;20563;-42
2022/09/21 04:39:19;;;;;;;18.53;17.43;;;11.40;34.30;;;;;;5012021;28;20184;-48
2022/09/21 04:41:45;;;;;;;17.77;16.87;;;11.50;33.70;;;;;;5014143;28;20418;-42
2022/09/21 04:44:10;;;;;;;17.00;16.20;;;11.50;33.90;;;;;;5013640;28;20774;-45
2022/09/21 04:46:37;;;;;;;16.23;15.33;;;11.50;33.40;;;;;;5013866;28;20234;-45
2022/09/21 04:49:03;;;;;;;17.13;15.80;;;11.50;33.40;;;;;;5013894;28;20181;-49
2022/09/21 04:51:28;;;;;;;17.73;16.63;;;11.60;33.40;;;;;;5031007;28;20768;-42
2022/09/21 04:53:54;;;;;;;18.13;17.23;;;11.30;33.90;;;;;;5013305;28;20192;-45
2022/09/21 04:56:20;;;;;;;16.83;15.93;;;11.20;34.00;;;;;;5013078;28;20237;-43
2022/09/21 04:58:45;;;;;;;17.37;16.40;;;11.10;34.80;;;;;;5013713;28;20184;-44
2022/09/21 05:01:11;;;;;;;17.90;16.90;;;11.30;34.50;;;;;;5013430;28;20177;-43
2022/09/21 05:03:37;;;;;;;17.73;16.53;;;11.30;33.60;;;;;;5013258;28;20551;-42
2022/09/21 05:06:03;;;;;;;18.03;17.03;;;11.00;33.90;;;;;;5013291;28;20419;-43
2022/09/21 05:11:19;;;;;;;19.60;18.70;;;10.20;36.90;;;;;;5000269;28;20199;-46
2022/09/21 05:13:46;;;;;;;19.40;18.13;;;10.00;38.00;;;;;;5013633;28;20521;-46
2022/09/21 05:16:13;;;;;;;20.13;19.13;;;9.70;40.30;;;;;;5012852;28;20506;-45
2022/09/21 05:18:38;;;;;;;22.30;20.83;;;9.60;40.90;;;;;;5012927;28;20415;-47
2022/09/21 05:21:07;;;;;;;20.57;19.50;;;9.60;41.30;;;;;;5013134;28;20561;-44
2022/09/21 05:23:33;;;;;;;19.93;18.83;;;9.60;41.70;;;;;;5013299;28;20176;-44
2022/09/21 05:25:59;;;;;;;20.17;19.17;;;9.70;41.70;;;;;;5013149;28;20516;-42
2022/09/21 05:28:25;;;;;;;19.70;18.80;;;9.80;40.70;;;;;;5012393;28;20479;-42
2022/09/21 05:31:14;;;;;;;20.00;18.90;;;9.90;41.00;;;;;;5013292;28;20434;-42
2022/09/21 05:33:43;;;;;;;20.27;19.20;;;10.10;39.90;;;;;;4965823;28;20816;-42
2022/09/21 05:36:09;;;;;;;19.63;18.33;;;10.30;39.10;;;;;;5012963;28;20459;-42
2022/09/21 05:38:35;;;;;;;19.50;18.40;;;10.50;38.20;;;;;;5012069;28;20882;-42
2022/09/21 05:41:01;;;;;;;19.60;18.70;;;10.80;37.20;;;;;;5012946;28;20179;-42
2022/09/21 05:43:27;;;;;;;19.47;18.27;;;10.90;36.20;;;;;;5012482;28;20603;-42
2022/09/21 05:46:25;;;;;;;18.50;17.60;;;11.00;35.70;;;;;;5013322;28;20415;-43
2022/09/21 05:49:20;;;;;;;18.73;17.83;;;11.20;35.10;;;;;;5012834;28;20173;-43
2022/09/21 05:52:10;;;;;;;19.40;18.30;;;11.30;34.50;;;;;;5003191;28;20419;-45
2022/09/21 05:54:38;;;;;;;18.80;17.70;;;11.40;34.00;;;;;;5012441;28;20419;-44
2022/09/21 05:57:10;;;;;;;19.90;18.80;;;11.40;33.50;;;;;;5012291;28;20967;-48
2022/09/21 05:59:49;;;;;;;19.00;18.10;;;11.50;33.50;;;;;;5012115;28;20434;-45
2022/09/21 06:02:34;;;;;;;18.90;17.77;;;11.50;33.80;;;;;;5012016;28;20418;-47
2022/09/21 06:05:04;;;;;;;19.53;18.20;;;11.50;33.70;;;;;;5012789;28;20439;-44
2022/09/21 06:07:30;;;;;;;18.10;17.10;;;11.50;32.90;;;;;;5011779;28;20423;-42
2022/09/21 06:09:55;;;;;;;19.70;18.60;;;11.60;32.90;;;;;;5011607;28;20546;-44
2022/09/21 06:12:21;;;;;;;20.67;19.27;;;11.60;33.30;;;;;;5012190;28;20188;-43
2022/09/21 06:14:47;;;;;;;17.10;16.10;;;11.60;33.40;;;;;;5012356;28;20292;-49
2022/09/21 06:17:12;;;;;;;15.73;14.40;;;11.60;33.10;;;;;;5012389;28;20209;-46
2022/09/21 06:19:38;;;;;;;17.70;16.57;;;11.60;32.90;;;;;;5012460;28;20173;-48
2022/09/21 06:22:04;;;;;;;15.23;14.37;;;11.60;32.90;;;;;;5012961;28;20181;-47
2022/09/21 06:24:29;;;;;;;15.97;14.10;;;11.70;33.00;;;;;;5012898;28;20181;-49
2022/09/21 06:26:55;;;;;;;13.83;12.93;;;11.70;33.00;;;;;;5012326;28;20177;-46
2022/09/21 06:29:22;;;;;;;15.20;14.10;;;11.70;33.00;;;;;;5012778;28;20191;-49
2022/09/21 06:31:50;;;;;;;15.47;14.30;;;11.50;32.80;;;;;;5012021;28;20936;-49
2022/09/21 06:34:15;;;;;;;14.50;13.70;;;11.30;32.60;;;;;;5011932;28;20493;-45
2022/09/21 06:36:41;;;;;;;15.00;13.83;;;11.00;33.80;;;;;;5012166;28;20462;-47
2022/09/21 06:39:06;;;;;;;18.37;17.07;;;10.80;34.80;;;;;;5012605;28;20184;-49
2022/09/21 06:41:32;;;;;;;17.47;16.47;;;10.80;35.90;;;;;;5011873;28;20230;-48
2022/09/21 06:43:58;;;;;;;18.93;17.73;;;10.90;35.50;;;;;;5011666;28;20176;-51
2022/09/21 06:46:23;;;;;;;18.23;17.03;;;10.90;35.40;;;;;;5011989;28;20188;-46
2022/09/21 06:48:49;;;;;;;19.53;18.33;;;11.00;35.80;;;;;;5012461;28;20181;-49
2022/09/21 06:51:15;;;;;;;18.93;17.33;;;11.20;35.80;;;;;;5012485;28;20195;-48
2022/09/21 06:53:40;;;;;;;18.80;17.70;;;11.20;35.50;;;;;;5011412;28;20545;-50
2022/09/21 06:56:08;;;;;;;16.77;15.77;;;11.30;34.90;;;;;;5029650;28;20270;-50
2022/09/21 06:58:36;;;;;;;16.37;15.43;;;11.40;34.40;;;;;;5029085;28;20173;-49
2022/09/21 07:01:05;;;;;;;16.40;15.40;;;11.50;34.10;;;;;;5011711;28;21029;-49
2022/09/21 07:03:31;;;;;;;17.43;16.53;;;11.50;33.90;;;;;;5011733;28;20419;-49
2022/09/21 07:05:56;;;;;;;17.47;16.37;;;11.60;34.10;;;;;;5011409;28;20557;-49
2022/09/21 07:08:22;;;;;;;16.60;15.60;;;11.60;33.40;;;;;;5010752;28;20216;-47
2022/09/21 07:10:48;;;;;;;16.97;15.30;;;11.70;33.50;;;;;;5011507;28;20187;-49
2022/09/21 07:13:16;;;;;;;18.07;16.90;;;11.80;33.10;;;;;;5010890;28;20537;-52
2022/09/21 07:15:42;;;;;;;17.30;16.10;;;11.60;32.90;;;;;;5011248;28;20902;-49
2022/09/21 07:18:12;;;;;;;19.37;18.13;;;11.10;34.80;;;;;;5029028;28;20411;-48
2022/09/21 07:20:39;;;;;;;17.80;16.90;;;11.20;36.10;;;;;;5011688;28;20775;-49
2022/09/21 07:23:17;;;;;;;18.23;17.00;;;11.40;35.40;;;;;;5011432;28;20935;-47
2022/09/21 07:25:44;;;;;;;18.97;17.67;;;11.50;34.60;;;;;;5011244;28;20499;-51
2022/09/21 07:28:11;;;;;;;17.93;16.60;;;11.70;34.40;;;;;;5011074;28;20441;-51
2022/09/21 07:30:38;;;;;;;17.10;16.20;;;11.80;33.90;;;;;;5011693;28;20777;-48
2022/09/21 07:33:05;;;;;;;15.40;14.37;;;11.80;33.10;;;;;;5011606;28;20439;-52
2022/09/21 07:35:31;;;;;;;18.10;15.63;;;11.70;33.40;;;;;;5010641;28;20423;-52
2022/09/21 07:37:58;;;;;;;15.50;14.50;;;11.70;34.00;;;;;;5011435;28;20481;-50
2022/09/21 07:40:24;;;;;;;15.10;14.20;;;11.80;34.50;;;;;;5010870;28;20498;-50
2022/09/21 07:42:50;;;;;;;14.03;13.17;;;11.90;34.10;;;;;;5010975;28;20415;-51
2022/09/21 07:45:15;;;;;;;15.20;14.30;;;12.00;33.50;;;;;;5011124;28;20419;-54
2022/09/21 07:47:41;;;;;;;16.03;15.10;;;12.00;33.20;;;;;;5010716;28;20187;-49
2022/09/21 07:50:07;;;;;;;15.07;13.70;;;12.00;33.00;;;;;;5011489;28;20250;-52
2022/09/21 07:52:33;;;;;;;14.67;13.87;;;12.00;33.30;;;;;;5010757;28;20191;-49
2022/09/21 07:54:59;;;;;;;14.63;13.83;;;12.00;32.40;;;;;;5010747;28;20424;-47
2022/09/21 08:00:11;;;;;;;15.37;14.37;;;12.00;33.30;;;;;;5029494;28;20553;-46
2022/09/21 08:02:36;;;;;;;15.23;14.23;;;12.10;33.30;;;;;;5011021;28;20408;-50
2022/09/21 08:05:02;;;;;;;15.80;14.80;;;12.00;33.20;;;;;;5011345;28;20419;-47
2022/09/21 08:07:28;;;;;;;15.47;14.67;;;12.10;33.50;;;;;;5010914;28;20187;-50
2022/09/21 08:09:54;;;;;;;14.67;13.57;;;12.20;33.40;;;;;;5011436;28;20415;-47
2022/09/21 08:12:19;;;;;;;13.30;12.57;;;12.30;33.20;;;;;;5011252;28;20632;-49
2022/09/21 08:14:49;;;;;;;14.50;13.33;;;12.30;32.30;;;;;;5015049;28;20183;-49
2022/09/21 08:17:15;;;;;;;14.63;13.73;;;12.40;32.80;;;;;;5014645;28;20295;-49
2022/09/21 08:19:40;;;;;;;14.83;13.87;;;12.50;32.40;;;;;;5014220;28;20442;-54
2022/09/21 08:22:06;;;;;;;15.47;14.20;;;12.40;32.70;;;;;;5014811;28;20462;-50
2022/09/21 08:24:32;;;;;;;13.23;12.47;;;12.50;32.70;;;;;;5014620;28;20534;-48
2022/09/21 08:26:58;;;;;;;13.27;12.67;;;12.60;33.00;;;;;;5014811;28;20250;-47
2022/09/21 08:29:24;;;;;;;14.67;13.80;;;12.70;32.30;;;;;;5014289;28;20287;-46
2022/09/21 08:31:51;;;;;;;14.27;13.37;;;12.70;32.00;;;;;;5013921;28;20415;-48
2022/09/21 08:34:18;;;;;;;15.13;13.93;;;12.70;32.50;;;;;;5014047;28;20981;-46
2022/09/21 08:36:44;;;;;;;17.33;16.27;;;12.90;32.60;;;;;;5013514;28;20466;-46
2022/09/21 08:39:10;;;;;;;15.10;14.10;;;13.00;31.50;;;;;;5013453;28;20404;-43
2022/09/21 08:41:59;;;;;;;13.40;12.63;;;12.90;31.90;;;;;;5013602;28;20422;-46
2022/09/21 08:44:31;;;;;;;13.90;13.30;;;13.00;32.10;;;;;;5013728;28;20494;-48
2022/09/21 08:47:26;;;;;;;17.93;16.20;;;13.10;31.90;;;;;;5013098;28;20468;-46
2022/09/21 08:49:58;;;;;;;14.27;13.47;;;13.20;30.80;;;;;;5002038;28;20419;-43
2022/09/21 08:52:25;;;;;;;15.30;14.20;;;13.20;30.80;;;;;;5013790;28;20423;-45
2022/09/21 08:54:53;;;;;;;14.73;14.03;;;13.40;31.30;;;;;;5013369;28;20506;-43
2022/09/21 08:57:21;;;;;;;13.10;12.50;;;13.70;30.70;;;;;;5013074;28;20985;-48
2022/09/21 08:59:48;;;;;;;13.00;12.43;;;14.00;28.80;;;;;;5013439;28;20503;-43
2022/09/21 09:02:54;;;;;;;14.33;13.53;;;14.30;29.00;;;;;;5014036;28;20799;-47
2022/09/21 09:05:41;;;;;;;14.30;13.60;;;14.60;28.50;;;;;;5013899;28;20415;-49
2022/09/21 09:08:37;;;;;;;14.03;13.23;;;14.90;28.20;;;;;;5013724;28;20407;-47
2022/09/21 09:11:21;;;;;;;13.70;12.90;;;15.00;26.60;;;;;;5013898;28;20582;-48
2022/09/21 09:13:55;;;;;;;13.20;12.40;;;15.10;26.70;;;;;;5013599;28;20415;-50
2022/09/21 09:16:54;;;;;;;13.47;12.80;;;15.20;26.70;;;;;;5013681;28;20454;-50
2022/09/21 09:19:46;;;;;;;12.67;12.17;;;15.40;26.30;;;;;;5013832;28;20423;-46
2022/09/21 09:22:20;;;;;;;12.37;11.70;;;15.60;24.80;;;;;;5013413;28;20578;-50
2022/09/21 09:24:49;;;;;;;14.50;13.60;;;15.70;25.70;;;;;;5012982;28;20577;-47
2022/09/21 09:27:22;;;;;;;12.60;12.10;;;15.90;25.90;;;;;;5013297;28;20422;-47
2022/09/21 09:30:13;;;;;;;12.03;11.53;;;16.10;24.90;;;;;;5013666;28;20411;-48
2022/09/21 09:32:55;;;;;;;11.67;11.17;;;16.30;24.40;;;;;;5013482;28;20699;-48
2022/09/21 09:35:27;;;;;;;11.37;10.97;;;16.40;23.80;;;;;;5013020;28;20415;-49
2022/09/21 09:38:37;;;;;;;11.33;10.80;;;16.60;23.50;;;;;;5013175;28;20423;-48
2022/09/21 09:41:24;;;;;;;11.43;10.97;;;16.70;23.10;;;;;;4988701;28;20415;-53
2022/09/21 09:44:13;;;;;;;12.53;11.93;;;16.70;23.50;;;;;;5013483;28;20499;-51
2022/09/21 09:47:12;;;;;;;12.87;12.20;;;16.80;23.50;;;;;;5013028;28;20707;-49
2022/09/21 09:49:38;;;;;;;12.90;11.97;;;16.90;23.10;;;;;;5030593;28;20765;-50
2022/09/21 09:52:04;;;;;;;11.50;11.00;;;17.00;22.40;;;;;;5012629;28;20514;-48
2022/09/21 09:54:33;;;;;;;11.93;11.53;;;17.00;22.30;;;;;;5012602;28;20411;-48
2022/09/21 09:57:03;;;;;;;12.80;12.20;;;16.80;21.70;;;;;;5012784;28;20455;-48
2022/09/21 09:59:35;;;;;;;11.80;10.97;;;16.70;22.00;;;;;;5013063;28;20422;-50
2022/09/21 10:02:06;;;;;;;13.03;12.20;;;16.60;22.70;;;;;;5013207;28;20626;-47
2022/09/21 10:04:33;;;;;;;12.33;11.80;;;16.70;22.60;;;;;;5012179;28;20411;-47
2022/09/21 10:06:59;;;;;;;12.53;12.03;;;16.60;22.80;;;;;;5012573;28;20415;-48
2022/09/21 10:09:31;;;;;;;12.53;11.90;;;16.50;21.90;;;;;;5012901;28;20762;-49
2022/09/21 10:12:00;;;;;;;12.60;11.93;;;16.40;22.10;;;;;;5013177;28;20708;-52
2022/09/21 10:14:30;;;;;;;12.23;11.73;;;16.30;23.00;;;;;;5012402;28;20450;-48
2022/09/21 10:17:14;;;;;;;11.97;11.37;;;16.20;21.50;;;;;;5012711;28;20462;-53
2022/09/21 10:19:40;;;;;;;12.40;11.80;;;16.20;22.10;;;;;;5013095;28;20422;-49
2022/09/21 10:22:05;;;;;;;11.43;10.93;;;16.30;21.70;;;;;;5013418;28;20514;-50
2022/09/21 10:24:36;;;;;;;11.90;11.40;;;16.30;21.90;;;;;;5012196;28;20644;-47
2022/09/21 10:27:15;;;;;;;11.70;11.30;;;16.30;21.80;;;;;;5012400;28;20185;-53
2022/09/21 10:29:41;;;;;;;11.73;11.03;;;16.20;21.80;;;;;;5012835;28;20419;-51
2022/09/21 10:32:11;;;;;;;12.37;11.77;;;16.10;22.30;;;;;;4996610;28;20479;-48
2022/09/21 10:34:39;;;;;;;12.87;11.80;;;16.00;22.00;;;;;;5012059;28;20447;-46
2022/09/21 10:37:28;;;;;;;12.47;11.87;;;15.90;22.10;;;;;;5012379;28;20470;-48
2022/09/21 10:39:54;;;;;;;11.07;10.70;;;16.00;22.70;;;;;;5012487;28;20781;-49
2022/09/21 10:42:20;;;;;;;10.40;9.90;;;16.10;21.90;;;;;;5012545;28;20419;-47
2022/09/21 10:44:52;;;;;;;11.40;11.00;;;16.10;21.30;;;;;;5012646;28;20411;-47
2022/09/21 10:47:22;;;;;;;14.50;13.80;;;16.10;20.90;;;;;;5012213;28;20424;-49
2022/09/21 10:49:52;;;;;;;11.87;11.40;;;16.20;21.40;;;;;;5012205;28;20419;-49
2022/09/21 10:52:23;;;;;;;11.37;11.07;;;16.20;20.90;;;;;;5012322;28;20509;-48
2022/09/21 10:54:51;;;;;;;12.17;11.67;;;16.30;19.50;;;;;;5012668;28;20414;-50
2022/09/21 10:57:19;;;;;;;12.03;11.43;;;16.40;19.30;;;;;;5012597;28;20834;-50
2022/09/21 10:59:45;;;;;;;11.67;11.17;;;16.50;19.30;;;;;;5030263;28;20434;-50
2022/09/21 11:02:30;;;;;;;10.03;9.63;;;16.50;19.80;;;;;;5012784;28;20491;-47
2022/09/21 11:05:19;;;;;;;11.20;10.90;;;16.50;19.30;;;;;;5011828;28;20208;-48
2022/09/21 11:07:48;;;;;;;10.53;10.10;;;16.60;18.90;;;;;;5012356;28;20427;-50
2022/09/21 11:10:18;;;;;;;11.10;10.70;;;16.60;18.70;;;;;;5012713;28;20840;-50
2022/09/21 11:13:02;;;;;;;11.37;10.97;;;16.50;18.80;;;;;;5012869;28;20514;-49
2022/09/21 11:15:32;;;;;;;9.70;9.30;;;16.50;19.30;;;;;;5012898;28;20420;-47
2022/09/21 11:18:17;;;;;;;10.10;9.70;;;16.50;19.20;;;;;;5012567;28;20827;-46
2022/09/21 11:20:55;;;;;;;11.57;10.80;;;16.50;18.70;;;;;;5012363;28;20414;-49
2022/09/21 11:23:44;;;;;;;9.60;9.30;;;16.40;18.70;;;;;;5012444;28;20403;-49
2022/09/21 11:26:22;;;;;;;12.67;12.00;;;16.40;19.30;;;;;;5012706;28;20462;-50
2022/09/21 11:29:30;;;;;;;11.40;10.90;;;16.40;20.10;;;;;;5011841;28;20798;-51
2022/09/21 11:32:28;;;;;;;11.40;10.70;;;16.50;21.20;;;;;;4966063;28;20506;-48
2022/09/21 11:35:15;;;;;;;11.50;10.80;;;16.50;21.20;;;;;;4958726;28;20403;-49
2022/09/21 11:38:08;;;;;;;10.60;10.27;;;16.40;21.70;;;;;;5012763;28;20916;-46
2022/09/21 11:40:42;;;;;;;10.73;10.33;;;16.40;22.30;;;;;;5012255;28;20419;-48
2022/09/21 11:43:29;;;;;;;11.17;10.70;;;16.40;22.00;;;;;;5029514;28;20438;-48
2022/09/21 11:46:05;;;;;;;11.07;10.67;;;16.20;20.80;;;;;;5012147;28;20427;-49
2022/09/21 11:48:43;;;;;;;11.00;10.60;;;16.20;20.90;;;;;;5013393;28;20423;-52
2022/09/21 11:51:08;;;;;;;11.67;10.87;;;16.00;21.30;;;;;;5015468;28;20781;-46
2022/09/21 11:53:43;;;;;;;10.40;10.10;;;16.00;21.20;;;;;;5015337;28;20423;-49
2022/09/21 11:56:20;;;;;;;11.23;10.63;;;16.00;21.00;;;;;;5015981;28;20198;-50
2022/09/21 11:59:18;;;;;;;11.13;10.73;;;16.00;21.40;;;;;;5015232;28;20414;-46
2022/09/21 12:02:10;;;;;;;10.53;10.23;;;16.10;20.60;;;;;;4932337;28;20507;-46
2022/09/21 12:05:07;;;;;;;11.00;10.50;;;16.20;19.10;;;;;;5015182;28;20411;-49
2022/09/21 12:07:45;;;;;;;10.60;10.10;;;16.20;19.00;;;;;;4966351;28;20420;-48
2022/09/21 12:10:26;;;;;;;9.77;9.47;;;16.20;19.10;;;;;;5033023;28;20950;-48
2022/09/21 12:12:55;;;;;;;10.20;9.80;;;16.30;19.50;;;;;;5015360;28;20407;-50
2022/09/21 12:15:41;;;;;;;10.17;9.83;;;16.40;19.70;;;;;;5015147;28;20440;-49
2022/09/21 12:18:24;;;;;;;10.13;9.57;;;16.50;19.30;;;;;;5015433;28;20477;-51
2022/09/21 12:21:10;;;;;;;10.33;10.03;;;16.60;19.40;;;;;;5015483;28;20403;-47
2022/09/21 12:23:51;;;;;;;10.10;9.70;;;16.70;19.70;;;;;;5015694;28;20438;-43
2022/09/21 12:26:25;;;;;;;9.97;9.67;;;16.70;19.40;;;;;;5015277;28;20779;-45
2022/09/21 12:28:59;;;;;;;9.93;9.63;;;16.70;19.00;;;;;;5015145;28;20422;-42
2022/09/21 12:31:46;;;;;;;9.80;9.50;;;16.70;18.90;;;;;;5015404;28;20889;-43
2022/09/21 12:34:23;;;;;;;9.27;9.07;;;16.70;18.50;;;;;;5016407;28;20407;-45
2022/09/21 12:37:14;;;;;;;9.37;9.17;;;16.60;18.80;;;;;;5015686;28;20459;-43
2022/09/21 12:40:26;;;;;;;9.87;9.57;;;16.70;19.20;;;;;;5014479;28;20779;-45
2022/09/21 12:42:51;;;;;;;10.00;9.70;;;16.70;17.70;;;;;;4930287;28;20419;-44
2022/09/21 12:45:53;;;;;;;9.03;8.80;;;16.80;17.30;;;;;;5015040;28;20426;-45
2022/09/21 12:48:45;;;;;;;9.20;8.90;;;16.80;16.80;;;;;;4993390;28;20263;-47
2022/09/21 12:51:20;;;;;;;9.60;9.30;;;16.90;16.10;;;;;;5011060;28;20779;-45
2022/09/21 12:53:48;;;;;;;9.40;9.00;;;17.00;16.40;;;;;;5014554;28;20423;-44
2022/09/21 12:56:32;;;;;;;11.10;10.70;;;17.10;16.20;;;;;;5014638;28;20963;-45
2022/09/21 12:59:16;;;;;;;10.50;10.00;;;17.20;15.90;;;;;;5014471;28;20416;-43
2022/09/21 13:01:57;;;;;;;9.73;9.43;;;17.00;15.80;;;;;;5015044;28;20412;-43
2022/09/21 13:04:42;;;;;;;9.90;9.50;;;17.10;17.30;;;;;;5032468;28;20408;-49